Aral'sk, Kazakhstan
Current Conditions -  °F | °C
As of 7:00 PM on Friday 28 Nov 2014 (Local Time) from UAOO Reporting Station
Clear Clear  
Wind Chill: -1°   Ceiling: Unl
Heat Index: 14°   Visibility: 6mi
Dew Point:   Wind: 13mph
Humidity: 73%   Direction: 60°ENE
Pressure: 30.56"   Gusts: NA
Location:  46.78°N, 61.65°E
Report Text: UAOO 281400Z 06006MPS 020V080 CAVOK M10/M14 Q1035 R06/CLRD70NOSIG RMK QFE765/1020
Loading
Personal Weather Stations






























Interactive Weather Map New forecast layout! Learn more

10-Day Weather Forecast

Advertisements
Track Severe Weather on mobile